sensor_id;sensor_type;location;lat;lon;timestamp;P1;durP1;ratioP1;P2;durP2;ratioP2
1106;SDS011;540;49.448;8.612;2023-02-08T00:00:59;22.73;;;10.05;;
1106;SDS011;540;49.448;8.612;2023-02-08T00:03:28;22.35;;;10.20;;
1106;SDS011;540;49.448;8.612;2023-02-08T00:05:56;24.40;;;10.68;;
1106;SDS011;540;49.448;8.612;2023-02-08T00:08:23;23.83;;;10.95;;
1106;SDS011;540;49.448;8.612;2023-02-08T00:10:51;21.70;;;10.05;;
1106;SDS011;540;49.448;8.612;2023-02-08T00:13:19;22.33;;;9.57;;
1106;SDS011;540;49.448;8.612;2023-02-08T00:15:47;21.40;;;9.65;;
1106;SDS011;540;49.448;8.612;2023-02-08T00:18:15;19.58;;;9.10;;
1106;SDS011;540;49.448;8.612;2023-02-08T00:20:44;22.13;;;10.20;;
1106;SDS011;540;49.448;8.612;2023-02-08T00:23:12;22.88;;;9.43;;
1106;SDS011;540;49.448;8.612;2023-02-08T00:25:41;22.38;;;9.93;;
1106;SDS011;540;49.448;8.612;2023-02-08T00:28:10;24.88;;;10.50;;
1106;SDS011;540;49.448;8.612;2023-02-08T00:30:40;21.83;;;9.38;;
1106;SDS011;540;49.448;8.612;2023-02-08T00:33:09;18.15;;;8.80;;
1106;SDS011;540;49.448;8.612;2023-02-08T00:35:38;23.40;;;9.02;;
1106;SDS011;540;49.448;8.612;2023-02-08T00:38:08;20.10;;;8.55;;
1106;SDS011;540;49.448;8.612;2023-02-08T00:40:36;22.67;;;10.20;;
1106;SDS011;540;49.448;8.612;2023-02-08T00:43:04;22.08;;;9.90;;
1106;SDS011;540;49.448;8.612;2023-02-08T00:45:33;28.33;;;10.88;;
1106;SDS011;540;49.448;8.612;2023-02-08T00:48:00;25.40;;;11.15;;
1106;SDS011;540;49.448;8.612;2023-02-08T00:50:28;23.67;;;9.98;;
1106;SDS011;540;49.448;8.612;2023-02-08T00:52:57;20.75;;;9.55;;
1106;SDS011;540;49.448;8.612;2023-02-08T00:55:26;22.98;;;9.27;;
1106;SDS011;540;49.448;8.612;2023-02-08T00:57:54;21.75;;;10.32;;
1106;SDS011;540;49.448;8.612;2023-02-08T01:00:21;21.63;;;9.93;;
1106;SDS011;540;49.448;8.612;2023-02-08T01:02:49;22.63;;;10.30;;
1106;SDS011;540;49.448;8.612;2023-02-08T01:05:17;22.25;;;9.18;;
1106;SDS011;540;49.448;8.612;2023-02-08T01:07:45;20.50;;;9.75;;
1106;SDS011;540;49.448;8.612;2023-02-08T01:10:13;21.13;;;9.38;;
1106;SDS011;540;49.448;8.612;2023-02-08T01:12:42;21.13;;;10.00;;
1106;SDS011;540;49.448;8.612;2023-02-08T01:15:09;19.40;;;9.18;;
1106;SDS011;540;49.448;8.612;2023-02-08T01:17:37;21.20;;;10.02;;
1106;SDS011;540;49.448;8.612;2023-02-08T01:20:05;19.95;;;9.00;;
1106;SDS011;540;49.448;8.612;2023-02-08T01:22:33;21.17;;;9.48;;
1106;SDS011;540;49.448;8.612;2023-02-08T01:25:01;20.10;;;9.30;;
1106;SDS011;540;49.448;8.612;2023-02-08T01:27:29;19.75;;;8.45;;
1106;SDS011;540;49.448;8.612;2023-02-08T01:29:58;18.40;;;8.95;;
1106;SDS011;540;49.448;8.612;2023-02-08T01:32:26;18.55;;;8.48;;
1106;SDS011;540;49.448;8.612;2023-02-08T01:34:54;18.20;;;8.10;;
1106;SDS011;540;49.448;8.612;2023-02-08T01:37:22;16.70;;;7.88;;
1106;SDS011;540;49.448;8.612;2023-02-08T01:39:49;16.40;;;7.70;;
1106;SDS011;540;49.448;8.612;2023-02-08T01:42:17;16.58;;;7.25;;
1106;SDS011;540;49.448;8.612;2023-02-08T01:47:57;16.02;;;6.60;;
1106;SDS011;540;49.448;8.612;2023-02-08T01:50:34;14.13;;;6.97;;
1106;SDS011;540;49.448;8.612;2023-02-08T01:53:07;15.55;;;7.05;;
1106;SDS011;540;49.448;8.612;2023-02-08T01:55:36;14.45;;;6.97;;
1106;SDS011;540;49.448;8.612;2023-02-08T01:58:09;15.65;;;7.22;;
1106;SDS011;540;49.448;8.612;2023-02-08T02:00:39;19.42;;;7.72;;
1106;SDS011;540;49.448;8.612;2023-02-08T02:03:09;17.23;;;7.25;;
1106;SDS011;540;49.448;8.612;2023-02-08T02:05:38;13.13;;;6.18;;
1106;SDS011;540;49.448;8.612;2023-02-08T02:08:08;14.55;;;6.13;;
1106;SDS011;540;49.448;8.612;2023-02-08T02:10:37;11.68;;;6.03;;
1106;SDS011;540;49.448;8.612;2023-02-08T02:13:08;14.10;;;5.88;;
1106;SDS011;540;49.448;8.612;2023-02-08T02:15:38;13.90;;;5.68;;
1106;SDS011;540;49.448;8.612;2023-02-08T02:18:06;13.32;;;6.30;;
1106;SDS011;540;49.448;8.612;2023-02-08T02:20:53;14.23;;;6.18;;
1106;SDS011;540;49.448;8.612;2023-02-08T02:32:56;12.60;;;5.95;;
1106;SDS011;540;49.448;8.612;2023-02-08T02:35:35;16.70;;;6.03;;
1106;SDS011;540;49.448;8.612;2023-02-08T02:38:12;13.18;;;6.15;;
1106;SDS011;540;49.448;8.612;2023-02-08T02:40:49;11.00;;;5.30;;
1106;SDS011;540;49.448;8.612;2023-02-08T02:43:28;11.80;;;5.97;;
1106;SDS011;540;49.448;8.612;2023-02-08T02:46:12;14.57;;;5.25;;
1106;SDS011;540;49.448;8.612;2023-02-08T02:48:48;13.68;;;6.28;;
1106;SDS011;540;49.448;8.612;2023-02-08T02:51:24;12.27;;;6.70;;
1106;SDS011;540;49.448;8.612;2023-02-08T02:53:56;14.20;;;6.57;;
1106;SDS011;540;49.448;8.612;2023-02-08T02:56:28;12.32;;;5.60;;
1106;SDS011;540;49.448;8.612;2023-02-08T02:59:01;13.15;;;5.53;;
1106;SDS011;540;49.448;8.612;2023-02-08T03:01:32;13.13;;;6.55;;
1106;SDS011;540;49.448;8.612;2023-02-08T03:04:11;10.75;;;5.38;;
1106;SDS011;540;49.448;8.612;2023-02-08T03:06:43;19.98;;;6.22;;
1106;SDS011;540;49.448;8.612;2023-02-08T03:09:24;13.23;;;5.32;;
1106;SDS011;540;49.448;8.612;2023-02-08T03:12:03;11.65;;;4.82;;
1106;SDS011;540;49.448;8.612;2023-02-08T03:14:37;13.90;;;5.30;;
1106;SDS011;540;49.448;8.612;2023-02-08T03:17:24;10.77;;;4.72;;
1106;SDS011;540;49.448;8.612;2023-02-08T03:20:04;14.10;;;4.55;;
1106;SDS011;540;49.448;8.612;2023-02-08T03:22:42;14.18;;;5.57;;
1106;SDS011;540;49.448;8.612;2023-02-08T03:25:13;13.10;;;5.10;;
1106;SDS011;540;49.448;8.612;2023-02-08T03:27:48;14.07;;;5.30;;
1106;SDS011;540;49.448;8.612;2023-02-08T03:30:24;11.93;;;6.07;;
1106;SDS011;540;49.448;8.612;2023-02-08T03:32:57;11.00;;;5.07;;
1106;SDS011;540;49.448;8.612;2023-02-08T03:35:32;10.68;;;5.00;;
1106;SDS011;540;49.448;8.612;2023-02-08T03:38:05;9.98;;;5.30;;
1106;SDS011;540;49.448;8.612;2023-02-08T03:40:35;9.73;;;4.85;;
1106;SDS011;540;49.448;8.612;2023-02-08T03:43:07;10.65;;;4.68;;
1106;SDS011;540;49.448;8.612;2023-02-08T03:45:41;12.63;;;5.75;;
1106;SDS011;540;49.448;8.612;2023-02-08T03:48:14;9.57;;;4.72;;
1106;SDS011;540;49.448;8.612;2023-02-08T03:50:47;10.93;;;5.70;;
1106;SDS011;540;49.448;8.612;2023-02-08T03:53:18;11.65;;;4.47;;
1106;SDS011;540;49.448;8.612;2023-02-08T03:55:50;10.98;;;4.93;;
1106;SDS011;540;49.448;8.612;2023-02-08T03:58:22;12.15;;;5.63;;
1106;SDS011;540;49.448;8.612;2023-02-08T04:00:54;16.52;;;5.85;;
1106;SDS011;540;49.448;8.612;2023-02-08T04:03:28;15.70;;;5.95;;
1106;SDS011;540;49.448;8.612;2023-02-08T04:05:59;13.13;;;6.00;;
1106;SDS011;540;49.448;8.612;2023-02-08T04:08:27;16.50;;;6.53;;
1106;SDS011;540;49.448;8.612;2023-02-08T04:10:55;12.00;;;5.65;;
1106;SDS011;540;49.448;8.612;2023-02-08T04:13:23;12.45;;;5.65;;
1106;SDS011;540;49.448;8.612;2023-02-08T04:15:51;15.30;;;6.00;;
1106;SDS011;540;49.448;8.612;2023-02-08T04:18:19;12.65;;;5.72;;
1106;SDS011;540;49.448;8.612;2023-02-08T04:20:47;13.95;;;6.50;;
1106;SDS011;540;49.448;8.612;2023-02-08T04:23:16;16.38;;;5.80;;
1106;SDS011;540;49.448;8.612;2023-02-08T04:25:43;11.75;;;5.95;;
1106;SDS011;540;49.448;8.612;2023-02-08T04:28:11;15.57;;;6.03;;
1106;SDS011;540;49.448;8.612;2023-02-08T04:30:39;12.45;;;5.80;;
1106;SDS011;540;49.448;8.612;2023-02-08T04:33:07;16.52;;;5.47;;
1106;SDS011;540;49.448;8.612;2023-02-08T04:35:37;13.73;;;5.80;;
1106;SDS011;540;49.448;8.612;2023-02-08T04:38:05;10.07;;;5.03;;
1106;SDS011;540;49.448;8.612;2023-02-08T04:40:34;13.82;;;5.43;;
1106;SDS011;540;49.448;8.612;2023-02-08T04:43:02;11.32;;;5.38;;
1106;SDS011;540;49.448;8.612;2023-02-08T04:45:30;15.52;;;6.57;;
1106;SDS011;540;49.448;8.612;2023-02-08T04:47:59;14.45;;;5.53;;
1106;SDS011;540;49.448;8.612;2023-02-08T04:50:27;10.90;;;5.55;;
1106;SDS011;540;49.448;8.612;2023-02-08T04:52:55;16.88;;;5.78;;
1106;SDS011;540;49.448;8.612;2023-02-08T04:55:23;16.20;;;6.15;;
1106;SDS011;540;49.448;8.612;2023-02-08T04:57:52;13.80;;;6.18;;
1106;SDS011;540;49.448;8.612;2023-02-08T05:00:20;24.27;;;5.75;;
1106;SDS011;540;49.448;8.612;2023-02-08T05:02:50;13.95;;;6.00;;
1106;SDS011;540;49.448;8.612;2023-02-08T05:05:19;12.95;;;5.38;;
1106;SDS011;540;49.448;8.612;2023-02-08T05:07:47;14.10;;;5.75;;
1106;SDS011;540;49.448;8.612;2023-02-08T05:10:15;14.50;;;6.30;;
1106;SDS011;540;49.448;8.612;2023-02-08T05:12:43;14.73;;;6.50;;
1106;SDS011;540;49.448;8.612;2023-02-08T05:15:12;15.32;;;6.68;;
1106;SDS011;540;49.448;8.612;2023-02-08T05:17:40;10.00;;;5.43;;
1106;SDS011;540;49.448;8.612;2023-02-08T05:20:09;16.48;;;6.50;;
1106;SDS011;540;49.448;8.612;2023-02-08T05:22:37;15.75;;;6.00;;
1106;SDS011;540;49.448;8.612;2023-02-08T05:25:05;15.50;;;6.22;;
1106;SDS011;540;49.448;8.612;2023-02-08T05:27:33;13.50;;;6.40;;
1106;SDS011;540;49.448;8.612;2023-02-08T05:30:02;15.45;;;6.13;;
1106;SDS011;540;49.448;8.612;2023-02-08T05:32:32;14.73;;;7.32;;
1106;SDS011;540;49.448;8.612;2023-02-08T05:35:00;14.43;;;6.30;;
1106;SDS011;540;49.448;8.612;2023-02-08T05:37:28;14.13;;;6.50;;
1106;SDS011;540;49.448;8.612;2023-02-08T05:39:55;16.42;;;6.38;;
1106;SDS011;540;49.448;8.612;2023-02-08T05:42:23;17.65;;;7.13;;
1106;SDS011;540;49.448;8.612;2023-02-08T05:44:52;16.95;;;7.82;;
1106;SDS011;540;49.448;8.612;2023-02-08T05:47:19;21.15;;;6.43;;
1106;SDS011;540;49.448;8.612;2023-02-08T05:49:49;18.88;;;7.18;;
1106;SDS011;540;49.448;8.612;2023-02-08T05:52:16;17.83;;;7.18;;
1106;SDS011;540;49.448;8.612;2023-02-08T05:54:44;17.17;;;7.25;;
1106;SDS011;540;49.448;8.612;2023-02-08T05:57:12;20.73;;;7.70;;
1106;SDS011;540;49.448;8.612;2023-02-08T05:59:40;17.20;;;6.78;;
1106;SDS011;540;49.448;8.612;2023-02-08T06:02:07;13.82;;;6.63;;
1106;SDS011;540;49.448;8.612;2023-02-08T06:04:35;17.67;;;7.50;;
1106;SDS011;540;49.448;8.612;2023-02-08T06:07:05;17.40;;;7.68;;
1106;SDS011;540;49.448;8.612;2023-02-08T06:09:33;15.75;;;7.60;;
1106;SDS011;540;49.448;8.612;2023-02-08T06:12:01;15.82;;;7.60;;
1106;SDS011;540;49.448;8.612;2023-02-08T06:14:29;22.33;;;8.63;;
1106;SDS011;540;49.448;8.612;2023-02-08T06:16:57;23.13;;;7.80;;
1106;SDS011;540;49.448;8.612;2023-02-08T06:19:25;19.40;;;7.15;;
1106;SDS011;540;49.448;8.612;2023-02-08T06:21:53;22.63;;;8.32;;
1106;SDS011;540;49.448;8.612;2023-02-08T06:24:22;18.10;;;7.63;;
1106;SDS011;540;49.448;8.612;2023-02-08T06:26:51;21.20;;;8.25;;
1106;SDS011;540;49.448;8.612;2023-02-08T06:29:18;21.10;;;7.38;;
1106;SDS011;540;49.448;8.612;2023-02-08T06:31:46;18.27;;;7.88;;
1106;SDS011;540;49.448;8.612;2023-02-08T06:34:14;22.50;;;9.25;;
1106;SDS011;540;49.448;8.612;2023-02-08T06:36:42;14.43;;;6.95;;
1106;SDS011;540;49.448;8.612;2023-02-08T06:39:10;27.48;;;11.13;;
1106;SDS011;540;49.448;8.612;2023-02-08T06:41:39;25.67;;;8.70;;
1106;SDS011;540;49.448;8.612;2023-02-08T06:44:07;18.27;;;8.02;;
1106;SDS011;540;49.448;8.612;2023-02-08T06:46:35;24.35;;;7.53;;
1106;SDS011;540;49.448;8.612;2023-02-08T06:49:03;19.20;;;8.52;;
1106;SDS011;540;49.448;8.612;2023-02-08T06:51:30;20.45;;;9.23;;
1106;SDS011;540;49.448;8.612;2023-02-08T06:53:58;20.48;;;8.77;;
1106;SDS011;540;49.448;8.612;2023-02-08T06:56:26;22.10;;;8.20;;
1106;SDS011;540;49.448;8.612;2023-02-08T06:58:56;22.05;;;8.73;;
1106;SDS011;540;49.448;8.612;2023-02-08T07:01:23;23.73;;;9.13;;
1106;SDS011;540;49.448;8.612;2023-02-08T07:03:51;21.55;;;8.63;;
1106;SDS011;540;49.448;8.612;2023-02-08T07:06:19;22.95;;;8.50;;
1106;SDS011;540;49.448;8.612;2023-02-08T07:08:47;18.48;;;8.98;;
1106;SDS011;540;49.448;8.612;2023-02-08T07:11:15;16.55;;;8.10;;
1106;SDS011;540;49.448;8.612;2023-02-08T07:13:45;17.33;;;8.73;;
1106;SDS011;540;49.448;8.612;2023-02-08T07:16:15;20.70;;;9.13;;
1106;SDS011;540;49.448;8.612;2023-02-08T07:18:44;21.67;;;8.93;;
1106;SDS011;540;49.448;8.612;2023-02-08T07:21:12;21.00;;;9.77;;
1106;SDS011;540;49.448;8.612;2023-02-08T07:23:40;21.67;;;9.52;;
1106;SDS011;540;49.448;8.612;2023-02-08T07:26:09;24.85;;;10.23;;
1106;SDS011;540;49.448;8.612;2023-02-08T07:28:39;25.85;;;11.10;;
1106;SDS011;540;49.448;8.612;2023-02-08T07:31:07;20.60;;;10.00;;
1106;SDS011;540;49.448;8.612;2023-02-08T07:33:38;24.98;;;8.65;;
1106;SDS011;540;49.448;8.612;2023-02-08T07:36:06;25.63;;;10.02;;
1106;SDS011;540;49.448;8.612;2023-02-08T07:38:36;22.92;;;10.23;;
1106;SDS011;540;49.448;8.612;2023-02-08T07:41:05;24.60;;;9.65;;
1106;SDS011;540;49.448;8.612;2023-02-08T07:43:35;20.65;;;8.77;;
1106;SDS011;540;49.448;8.612;2023-02-08T07:46:04;20.92;;;8.98;;
1106;SDS011;540;49.448;8.612;2023-02-08T07:48:33;16.73;;;8.18;;
1106;SDS011;540;49.448;8.612;2023-02-08T07:51:04;17.75;;;8.38;;
1106;SDS011;540;49.448;8.612;2023-02-08T07:53:32;22.60;;;10.55;;
1106;SDS011;540;49.448;8.612;2023-02-08T07:56:00;27.65;;;11.23;;
1106;SDS011;540;49.448;8.612;2023-02-08T07:58:28;25.42;;;11.77;;
1106;SDS011;540;49.448;8.612;2023-02-08T08:00:56;21.20;;;12.05;;
1106;SDS011;540;49.448;8.612;2023-02-08T08:03:37;19.17;;;11.10;;
1106;SDS011;540;49.448;8.612;2023-02-08T08:06:06;21.20;;;10.55;;
1106;SDS011;540;49.448;8.612;2023-02-08T08:08:34;32.10;;;11.23;;
1106;SDS011;540;49.448;8.612;2023-02-08T08:11:02;19.23;;;10.60;;
1106;SDS011;540;49.448;8.612;2023-02-08T08:13:30;18.33;;;10.25;;
1106;SDS011;540;49.448;8.612;2023-02-08T08:15:57;20.10;;;10.25;;
1106;SDS011;540;49.448;8.612;2023-02-08T08:18:25;17.92;;;10.07;;
1106;SDS011;540;49.448;8.612;2023-02-08T08:20:53;17.85;;;10.70;;
1106;SDS011;540;49.448;8.612;2023-02-08T08:23:22;16.17;;;9.40;;
1106;SDS011;540;49.448;8.612;2023-02-08T08:25:50;16.17;;;8.85;;
1106;SDS011;540;49.448;8.612;2023-02-08T08:28:18;19.42;;;10.57;;
1106;SDS011;540;49.448;8.612;2023-02-08T08:30:46;14.50;;;8.95;;
1106;SDS011;540;49.448;8.612;2023-02-08T08:33:14;16.40;;;9.38;;
1106;SDS011;540;49.448;8.612;2023-02-08T08:35:41;19.42;;;10.00;;
1106;SDS011;540;49.448;8.612;2023-02-08T08:38:12;18.33;;;8.40;;
1106;SDS011;540;49.448;8.612;2023-02-08T08:40:41;16.20;;;9.02;;
1106;SDS011;540;49.448;8.612;2023-02-08T08:43:09;17.02;;;9.15;;
1106;SDS011;540;49.448;8.612;2023-02-08T08:45:36;13.98;;;8.48;;
1106;SDS011;540;49.448;8.612;2023-02-08T08:48:04;13.85;;;8.55;;
1106;SDS011;540;49.448;8.612;2023-02-08T08:50:32;18.05;;;9.70;;
1106;SDS011;540;49.448;8.612;2023-02-08T08:53:00;11.35;;;8.20;;
1106;SDS011;540;49.448;8.612;2023-02-08T08:55:28;13.45;;;8.90;;
1106;SDS011;540;49.448;8.612;2023-02-08T08:57:57;17.90;;;9.30;;
1106;SDS011;540;49.448;8.612;2023-02-08T09:00:25;20.27;;;10.25;;
1106;SDS011;540;49.448;8.612;2023-02-08T09:02:56;14.57;;;9.75;;
1106;SDS011;540;49.448;8.612;2023-02-08T09:05:26;17.15;;;9.40;;
1106;SDS011;540;49.448;8.612;2023-02-08T09:07:56;15.70;;;9.32;;
1106;SDS011;540;49.448;8.612;2023-02-08T09:10:27;15.68;;;9.27;;
1106;SDS011;540;49.448;8.612;2023-02-08T09:12:58;16.15;;;8.90;;
1106;SDS011;540;49.448;8.612;2023-02-08T09:15:28;13.00;;;8.80;;
1106;SDS011;540;49.448;8.612;2023-02-08T09:17:58;15.32;;;8.93;;
1106;SDS011;540;49.448;8.612;2023-02-08T09:20:28;18.60;;;8.88;;
1106;SDS011;540;49.448;8.612;2023-02-08T09:22:58;12.48;;;8.48;;
1106;SDS011;540;49.448;8.612;2023-02-08T09:25:28;12.93;;;8.25;;
1106;SDS011;540;49.448;8.612;2023-02-08T09:28:00;12.23;;;7.95;;
1106;SDS011;540;49.448;8.612;2023-02-08T09:30:30;11.85;;;8.80;;
1106;SDS011;540;49.448;8.612;2023-02-08T09:33:00;14.10;;;8.55;;
1106;SDS011;540;49.448;8.612;2023-02-08T09:35:30;11.10;;;7.38;;
1106;SDS011;540;49.448;8.612;2023-02-08T09:38:00;15.23;;;8.38;;
1106;SDS011;540;49.448;8.612;2023-02-08T09:40:33;11.20;;;7.80;;
1106;SDS011;540;49.448;8.612;2023-02-08T09:43:13;12.35;;;8.77;;
1106;SDS011;540;49.448;8.612;2023-02-08T09:45:48;12.70;;;7.80;;
1106;SDS011;540;49.448;8.612;2023-02-08T09:48:26;13.98;;;8.30;;
1106;SDS011;540;49.448;8.612;2023-02-08T09:51:02;11.75;;;7.70;;
1106;SDS011;540;49.448;8.612;2023-02-08T09:53:38;10.18;;;7.90;;
1106;SDS011;540;49.448;8.612;2023-02-08T09:56:10;12.20;;;7.88;;
1106;SDS011;540;49.448;8.612;2023-02-08T09:58:43;18.10;;;11.77;;
1106;SDS011;540;49.448;8.612;2023-02-08T10:01:15;15.68;;;8.80;;
1106;SDS011;540;49.448;8.612;2023-02-08T10:03:47;11.45;;;8.70;;
1106;SDS011;540;49.448;8.612;2023-02-08T10:06:19;12.65;;;8.50;;
1106;SDS011;540;49.448;8.612;2023-02-08T10:08:48;11.85;;;7.97;;
1106;SDS011;540;49.448;8.612;2023-02-08T10:11:21;13.90;;;8.30;;
1106;SDS011;540;49.448;8.612;2023-02-08T10:14:02;15.27;;;8.07;;
1106;SDS011;540;49.448;8.612;2023-02-08T10:16:44;10.35;;;6.80;;
1106;SDS011;540;49.448;8.612;2023-02-08T10:19:29;13.57;;;9.48;;
1106;SDS011;540;49.448;8.612;2023-02-08T10:22:08;10.45;;;7.65;;
1106;SDS011;540;49.448;8.612;2023-02-08T10:24:59;14.68;;;7.53;;
1106;SDS011;540;49.448;8.612;2023-02-08T10:27:52;11.05;;;6.70;;
1106;SDS011;540;49.448;8.612;2023-02-08T10:30:35;13.55;;;8.10;;
1106;SDS011;540;49.448;8.612;2023-02-08T10:33:11;13.48;;;8.15;;
1106;SDS011;540;49.448;8.612;2023-02-08T10:35:45;13.82;;;8.15;;
1106;SDS011;540;49.448;8.612;2023-02-08T10:38:18;11.70;;;6.50;;
1106;SDS011;540;49.448;8.612;2023-02-08T10:40:55;14.65;;;7.60;;
1106;SDS011;540;49.448;8.612;2023-02-08T10:43:29;12.50;;;7.20;;
1106;SDS011;540;49.448;8.612;2023-02-08T10:46:06;13.98;;;7.00;;
1106;SDS011;540;49.448;8.612;2023-02-08T10:48:44;14.07;;;7.15;;
1106;SDS011;540;49.448;8.612;2023-02-08T10:51:19;12.43;;;5.78;;
1106;SDS011;540;49.448;8.612;2023-02-08T10:53:48;10.32;;;6.40;;
1106;SDS011;540;49.448;8.612;2023-02-08T10:56:20;13.57;;;7.00;;
1106;SDS011;540;49.448;8.612;2023-02-08T10:58:57;12.02;;;7.68;;
1106;SDS011;540;49.448;8.612;2023-02-08T11:01:28;11.07;;;6.43;;
1106;SDS011;540;49.448;8.612;2023-02-08T11:03:59;11.27;;;6.25;;
1106;SDS011;540;49.448;8.612;2023-02-08T11:06:28;13.15;;;6.50;;
1106;SDS011;540;49.448;8.612;2023-02-08T11:08:56;12.48;;;6.50;;
1106;SDS011;540;49.448;8.612;2023-02-08T11:11:24;13.63;;;6.60;;
1106;SDS011;540;49.448;8.612;2023-02-08T11:14:04;13.27;;;6.15;;
1106;SDS011;540;49.448;8.612;2023-02-08T11:16:35;14.15;;;6.47;;
1106;SDS011;540;49.448;8.612;2023-02-08T11:19:03;11.63;;;6.25;;
1106;SDS011;540;49.448;8.612;2023-02-08T11:21:33;10.20;;;6.25;;
1106;SDS011;540;49.448;8.612;2023-02-08T11:24:05;12.32;;;7.10;;
1106;SDS011;540;49.448;8.612;2023-02-08T11:26:52;13.82;;;7.43;;
1106;SDS011;540;49.448;8.612;2023-02-08T11:29:21;11.70;;;7.18;;
1106;SDS011;540;49.448;8.612;2023-02-08T11:31:59;12.07;;;6.60;;
1106;SDS011;540;49.448;8.612;2023-02-08T11:34:29;9.95;;;6.78;;
1106;SDS011;540;49.448;8.612;2023-02-08T11:36:59;10.80;;;7.30;;
1106;SDS011;540;49.448;8.612;2023-02-08T11:39:30;13.38;;;6.70;;
1106;SDS011;540;49.448;8.612;2023-02-08T11:42:01;10.25;;;6.78;;
1106;SDS011;540;49.448;8.612;2023-02-08T11:44:30;11.80;;;7.20;;
1106;SDS011;540;49.448;8.612;2023-02-08T11:47:02;9.05;;;6.78;;
1106;SDS011;540;49.448;8.612;2023-02-08T11:49:35;12.63;;;6.18;;
1106;SDS011;540;49.448;8.612;2023-02-08T11:52:05;13.43;;;7.97;;
1106;SDS011;540;49.448;8.612;2023-02-08T11:54:44;9.93;;;6.68;;
1106;SDS011;540;49.448;8.612;2023-02-08T11:57:14;10.25;;;6.45;;
1106;SDS011;540;49.448;8.612;2023-02-08T11:59:44;10.52;;;7.13;;
1106;SDS011;540;49.448;8.612;2023-02-08T12:02:27;10.63;;;6.43;;
1106;SDS011;540;49.448;8.612;2023-02-08T12:04:57;9.68;;;6.95;;
1106;SDS011;540;49.448;8.612;2023-02-08T12:07:31;10.70;;;6.22;;
1106;SDS011;540;49.448;8.612;2023-02-08T12:10:13;31.38;;;21.10;;
1106;SDS011;540;49.448;8.612;2023-02-08T12:15:42;10.93;;;6.38;;
1106;SDS011;540;49.448;8.612;2023-02-08T12:18:30;10.25;;;6.75;;
1106;SDS011;540;49.448;8.612;2023-02-08T12:21:11;10.15;;;6.97;;
1106;SDS011;540;49.448;8.612;2023-02-08T12:23:48;10.48;;;6.95;;
1106;SDS011;540;49.448;8.612;2023-02-08T12:26:22;15.52;;;9.25;;
1106;SDS011;540;49.448;8.612;2023-02-08T12:29:05;17.30;;;11.75;;
1106;SDS011;540;49.448;8.612;2023-02-08T12:31:48;16.75;;;11.43;;
1106;SDS011;540;49.448;8.612;2023-02-08T12:34:30;13.18;;;7.50;;
1106;SDS011;540;49.448;8.612;2023-02-08T12:37:12;12.57;;;6.60;;
1106;SDS011;540;49.448;8.612;2023-02-08T12:40:09;9.27;;;6.90;;
1106;SDS011;540;49.448;8.612;2023-02-08T12:43:05;9.50;;;6.22;;
1106;SDS011;540;49.448;8.612;2023-02-08T12:48:59;9.93;;;6.13;;
1106;SDS011;540;49.448;8.612;2023-02-08T12:51:43;10.68;;;6.75;;
1106;SDS011;540;49.448;8.612;2023-02-08T12:54:22;7.90;;;6.03;;
1106;SDS011;540;49.448;8.612;2023-02-08T12:56:59;7.72;;;5.60;;
1106;SDS011;540;49.448;8.612;2023-02-08T12:59:29;14.05;;;9.25;;
1106;SDS011;540;49.448;8.612;2023-02-08T13:02:03;17.23;;;10.30;;
1106;SDS011;540;49.448;8.612;2023-02-08T13:04:40;7.25;;;4.70;;
1106;SDS011;540;49.448;8.612;2023-02-08T13:07:14;6.57;;;4.32;;
1106;SDS011;540;49.448;8.612;2023-02-08T13:09:47;7.82;;;4.97;;
1106;SDS011;540;49.448;8.612;2023-02-08T13:12:22;6.53;;;4.63;;
1106;SDS011;540;49.448;8.612;2023-02-08T13:14:54;7.03;;;4.85;;
1106;SDS011;540;49.448;8.612;2023-02-08T13:17:28;10.50;;;5.53;;
1106;SDS011;540;49.448;8.612;2023-02-08T13:20:02;9.00;;;4.35;;
1106;SDS011;540;49.448;8.612;2023-02-08T13:22:34;7.03;;;4.40;;
1106;SDS011;540;49.448;8.612;2023-02-08T13:25:08;6.35;;;4.38;;
1106;SDS011;540;49.448;8.612;2023-02-08T13:27:42;6.03;;;4.50;;
1106;SDS011;540;49.448;8.612;2023-02-08T13:30:15;5.97;;;4.22;;
1106;SDS011;540;49.448;8.612;2023-02-08T13:32:45;6.43;;;4.28;;
1106;SDS011;540;49.448;8.612;2023-02-08T13:35:17;5.18;;;4.05;;
1106;SDS011;540;49.448;8.612;2023-02-08T13:37:51;7.18;;;4.50;;
1106;SDS011;540;49.448;8.612;2023-02-08T13:40:25;6.20;;;4.35;;
1106;SDS011;540;49.448;8.612;2023-02-08T13:42:56;5.40;;;3.95;;
1106;SDS011;540;49.448;8.612;2023-02-08T13:45:27;6.40;;;4.20;;
1106;SDS011;540;49.448;8.612;2023-02-08T13:48:00;6.40;;;4.40;;
1106;SDS011;540;49.448;8.612;2023-02-08T13:50:40;7.10;;;4.18;;
1106;SDS011;540;49.448;8.612;2023-02-08T13:53:13;9.80;;;4.18;;
1106;SDS011;540;49.448;8.612;2023-02-08T13:55:53;6.07;;;4.15;;
1106;SDS011;540;49.448;8.612;2023-02-08T14:01:26;9.07;;;4.05;;
1106;SDS011;540;49.448;8.612;2023-02-08T14:06:59;5.05;;;3.88;;
1106;SDS011;540;49.448;8.612;2023-02-08T14:09:49;6.85;;;4.13;;
1106;SDS011;540;49.448;8.612;2023-02-08T14:12:30;6.97;;;4.18;;
1106;SDS011;540;49.448;8.612;2023-02-08T14:17:52;8.65;;;3.90;;
1106;SDS011;540;49.448;8.612;2023-02-08T14:20:24;8.10;;;4.05;;
1106;SDS011;540;49.448;8.612;2023-02-08T14:22:56;5.55;;;3.63;;
1106;SDS011;540;49.448;8.612;2023-02-08T14:25:28;6.25;;;3.78;;
1106;SDS011;540;49.448;8.612;2023-02-08T14:28:05;6.47;;;3.70;;
1106;SDS011;540;49.448;8.612;2023-02-08T14:30:33;7.63;;;4.75;;
1106;SDS011;540;49.448;8.612;2023-02-08T14:33:10;8.82;;;5.18;;
1106;SDS011;540;49.448;8.612;2023-02-08T14:35:49;6.97;;;4.65;;
1106;SDS011;540;49.448;8.612;2023-02-08T14:38:31;7.28;;;3.78;;
1106;SDS011;540;49.448;8.612;2023-02-08T14:50:19;5.80;;;2.60;;
1106;SDS011;540;49.448;8.612;2023-02-08T14:52:51;6.18;;;3.08;;
1106;SDS011;540;49.448;8.612;2023-02-08T14:55:26;5.35;;;3.05;;
1106;SDS011;540;49.448;8.612;2023-02-08T14:57:58;7.60;;;3.50;;
1106;SDS011;540;49.448;8.612;2023-02-08T15:00:28;8.23;;;3.03;;
1106;SDS011;540;49.448;8.612;2023-02-08T15:03:00;7.53;;;3.58;;
1106;SDS011;540;49.448;8.612;2023-02-08T15:05:30;8.88;;;3.28;;
1106;SDS011;540;49.448;8.612;2023-02-08T15:08:03;5.07;;;2.70;;
1106;SDS011;540;49.448;8.612;2023-02-08T15:10:32;9.77;;;4.65;;
1106;SDS011;540;49.448;8.612;2023-02-08T15:13:02;8.45;;;2.95;;
1106;SDS011;540;49.448;8.612;2023-02-08T15:15:34;6.18;;;3.30;;
1106;SDS011;540;49.448;8.612;2023-02-08T15:18:05;7.55;;;3.38;;
1106;SDS011;540;49.448;8.612;2023-02-08T15:20:44;8.05;;;3.67;;
1106;SDS011;540;49.448;8.612;2023-02-08T15:23:17;8.38;;;3.90;;
1106;SDS011;540;49.448;8.612;2023-02-08T15:25:53;7.15;;;3.38;;
1106;SDS011;540;49.448;8.612;2023-02-08T15:30:54;5.60;;;3.25;;
1106;SDS011;540;49.448;8.612;2023-02-08T15:33:24;7.40;;;3.95;;
1106;SDS011;540;49.448;8.612;2023-02-08T15:35:54;7.63;;;3.78;;
1106;SDS011;540;49.448;8.612;2023-02-08T15:38:23;7.25;;;3.38;;
1106;SDS011;540;49.448;8.612;2023-02-08T15:40:58;11.20;;;4.15;;
1106;SDS011;540;49.448;8.612;2023-02-08T15:43:29;15.63;;;5.95;;
1106;SDS011;540;49.448;8.612;2023-02-08T15:45:57;10.07;;;4.13;;
1106;SDS011;540;49.448;8.612;2023-02-08T15:48:26;9.10;;;4.03;;
1106;SDS011;540;49.448;8.612;2023-02-08T15:50:55;9.82;;;3.78;;
1106;SDS011;540;49.448;8.612;2023-02-08T15:53:23;9.15;;;4.40;;
1106;SDS011;540;49.448;8.612;2023-02-08T15:55:53;12.65;;;4.53;;
1106;SDS011;540;49.448;8.612;2023-02-08T15:58:25;12.95;;;5.22;;
1106;SDS011;540;49.448;8.612;2023-02-08T16:00:57;11.15;;;4.35;;
1106;SDS011;540;49.448;8.612;2023-02-08T16:03:27;9.25;;;4.43;;
1106;SDS011;540;49.448;8.612;2023-02-08T16:05:57;10.18;;;4.80;;
1106;SDS011;540;49.448;8.612;2023-02-08T16:08:27;9.85;;;4.68;;
1106;SDS011;540;49.448;8.612;2023-02-08T16:10:57;9.95;;;4.38;;
1106;SDS011;540;49.448;8.612;2023-02-08T16:13:26;10.27;;;5.22;;
1106;SDS011;540;49.448;8.612;2023-02-08T16:16:12;10.73;;;5.00;;
1106;SDS011;540;49.448;8.612;2023-02-08T16:18:42;9.73;;;4.97;;
1106;SDS011;540;49.448;8.612;2023-02-08T16:21:19;10.73;;;4.85;;
1106;SDS011;540;49.448;8.612;2023-02-08T16:23:52;14.18;;;5.10;;